Urb Calvario, Puerto Rico
Current Conditions -  °F | °C
As of 4:18 PM on Thursday 29 Jan 2015 (Local Time) from TJNR Reporting Station
Broken Clouds Broken Clouds  
Wind Chill: 81°   Ceiling: 2700
Heat Index: 84°   Visibility: 10mi
Dew Point: 70°   Wind: 5mph
Humidity: 69%   Direction: 80°E
Pressure: 30"   Gusts: NA
Location:  18.0547°N, 65.8738°W
Report Text: TJNR 292018Z AUTO 08004KT 10SM BKN027 27/21 A3000 RMK AO2 T02720211 $
Loading
Personal Weather Stations






























Interactive Weather Map New forecast layout! Learn more

10-Day Weather Forecast

Advertisements
Track Severe Weather on mobile